Time;durP1;ratioP1;P1;durP2;ratioP2;P2;SDS_P1;SDS_P2;PMS_P1;PMS_P2;Temp;Humidity;BMP_temperature;BMP_pressure;BME280_temperature;BME280_humidity;BME280_pressure;Samples;Min_cycle;Max_cycle;Signal;HPM_P1;HPM_P2
2021/07/12 00:02:00;;;;;;;4.93;4.45;;;16.40;1.00;;;;;;5070922;28;20032;-77
2021/07/12 00:04:26;;;;;;;4.45;4.05;;;16.30;1.00;;;;;;5072245;28;20017;-77
2021/07/12 00:06:51;;;;;;;4.18;3.78;;;16.30;1.00;;;;;;5072081;28;20082;-76
2021/07/12 00:09:17;;;;;;;5.63;4.25;;;16.30;1.00;;;;;;5072015;28;20020;-76
2021/07/12 00:11:43;;;;;;;5.80;4.25;;;16.30;1.00;;;;;;5071960;28;20025;-76
2021/07/12 00:14:08;;;;;;;5.75;4.78;;;16.20;1.00;;;;;;5071974;28;20025;-77
2021/07/12 00:16:34;;;;;;;4.60;4.18;;;16.10;1.00;;;;;;5071955;28;20048;-76
2021/07/12 00:19:00;;;;;;;6.45;3.95;;;16.10;1.00;;;;;;5072116;28;20474;-76
2021/07/12 00:21:26;;;;;;;5.40;4.10;;;16.10;1.00;;;;;;5072163;28;20020;-77
2021/07/12 00:23:52;;;;;;;5.60;4.35;;;16.00;1.00;;;;;;5070555;28;20028;-77
2021/07/12 00:26:18;;;;;;;4.53;4.10;;;16.00;1.00;;;;;;5072039;28;20394;-76
2021/07/12 00:28:44;;;;;;;7.35;4.60;;;16.00;1.00;;;;;;5070806;28;20025;-76
2021/07/12 00:31:10;;;;;;;8.30;4.22;;;15.90;1.00;;;;;;5054069;28;20044;-77
2021/07/12 00:33:36;;;;;;;7.05;4.82;;;15.90;1.00;;;;;;5071936;28;20482;-77
2021/07/12 00:36:03;;;;;;;7.38;4.70;;;15.90;1.00;;;;;;5072091;28;20029;-75
2021/07/12 00:38:28;;;;;;;5.70;4.40;;;15.80;1.00;;;;;;5095264;28;20040;-76
2021/07/12 00:40:55;;;;;;;5.40;4.18;;;15.90;1.00;;;;;;5083122;28;20035;-76
2021/07/12 00:43:20;;;;;;;5.72;4.50;;;15.90;1.00;;;;;;5085649;28;20028;-76
2021/07/12 00:45:48;;;;;;;5.13;4.70;;;15.80;1.00;;;;;;5074398;28;20033;-75
2021/07/12 00:48:14;;;;;;;6.18;5.10;;;15.80;1.00;;;;;;5073631;28;20055;-76
2021/07/12 00:50:42;;;;;;;5.38;4.65;;;15.80;1.00;;;;;;5072854;28;20051;-76
2021/07/12 00:53:09;;;;;;;5.70;5.10;;;15.70;1.00;;;;;;5054129;28;20072;-76
2021/07/12 00:55:39;;;;;;;8.95;5.38;;;15.70;1.00;;;;;;5072923;28;20119;-76
2021/07/12 00:58:06;;;;;;;4.85;4.00;;;15.70;1.00;;;;;;5074482;28;20417;-77
2021/07/12 01:00:33;;;;;;;4.97;4.35;;;15.70;1.00;;;;;;5075663;28;20028;-75
2021/07/12 01:02:59;;;;;;;5.00;4.45;;;15.70;1.00;;;;;;5074458;28;20481;-76
2021/07/12 01:05:31;;;;;;;5.10;4.00;;;15.70;1.00;;;;;;5075183;28;20108;-76
2021/07/12 01:08:00;;;;;;;6.00;4.47;;;15.60;1.00;;;;;;5057560;28;20027;-76
2021/07/12 01:10:26;;;;;;;5.60;4.07;;;15.60;1.00;;;;;;5075695;28;20389;-76
2021/07/12 01:13:07;;;;;;;5.07;4.22;;;15.50;1.00;;;;;;5075523;28;20031;-77
2021/07/12 01:15:39;;;;;;;4.95;4.45;;;15.50;1.00;;;;;;5057615;28;20127;-77
2021/07/12 01:18:33;;;;;;;11.10;5.03;;;15.50;1.00;;;;;;5075491;28;20059;-77
2021/07/12 01:21:07;;;;;;;7.60;4.72;;;15.40;1.00;;;;;;5075239;28;20031;-77
2021/07/12 01:23:55;;;;;;;6.82;4.80;;;15.40;1.00;;;;;;5057212;28;20529;-75
2021/07/12 01:26:45;;;;;;;6.55;4.75;;;15.50;1.00;;;;;;5074876;28;20021;-77
2021/07/12 01:29:24;;;;;;;5.75;4.97;;;15.40;1.00;;;;;;5075138;28;20071;-76
2021/07/12 01:32:02;;;;;;;6.05;4.63;;;15.30;1.00;;;;;;5075072;28;20017;-77
2021/07/12 01:34:34;;;;;;;5.43;4.30;;;15.30;1.00;;;;;;5075004;28;20063;-76
2021/07/12 01:37:08;;;;;;;6.43;4.63;;;15.30;1.00;;;;;;5056709;28;20052;-77
2021/07/12 01:39:48;;;;;;;8.95;5.35;;;15.30;1.00;;;;;;5074831;28;20035;-75
2021/07/12 01:42:28;;;;;;;4.47;4.07;;;15.30;1.00;;;;;;5073710;28;20112;-76
2021/07/12 01:45:05;;;;;;;4.63;3.78;;;15.30;1.00;;;;;;5074732;28;20021;-76
2021/07/12 01:47:41;;;;;;;5.10;4.38;;;15.20;1.00;;;;;;5074677;28;20029;-77
2021/07/12 01:50:36;;;;;;;10.95;4.00;;;15.10;1.00;;;;;;5074792;28;20091;-77
2021/07/12 01:53:16;;;;;;;4.97;3.53;;;15.20;1.00;;;;;;5056927;28;20032;-77
2021/07/12 01:56:14;;;;;;;4.47;3.60;;;15.10;1.00;;;;;;5074396;28;20033;-77
2021/07/12 01:59:02;;;;;;;3.40;2.80;;;15.10;1.00;;;;;;5074513;28;20031;-76
2021/07/12 02:01:30;;;;;;;5.90;3.10;;;15.00;1.00;;;;;;5074595;28;20032;-76
2021/07/12 02:03:58;;;;;;;4.40;3.40;;;15.00;1.00;;;;;;5056726;28;20024;-76
2021/07/12 02:06:25;;;;;;;3.80;3.47;;;15.00;1.00;;;;;;5073633;28;20020;-76
2021/07/12 02:08:53;;;;;;;5.88;3.40;;;15.00;1.00;;;;;;5074134;28;20506;-75
2021/07/12 02:11:19;;;;;;;4.93;3.67;;;15.00;1.00;;;;;;5074614;28;20028;-78
2021/07/12 02:13:47;;;;;;;4.18;3.42;;;15.00;1.00;;;;;;5074147;28;20024;-77
2021/07/12 02:16:14;;;;;;;4.03;3.63;;;14.90;1.00;;;;;;5074691;28;20482;-75
2021/07/12 02:18:42;;;;;;;3.83;3.40;;;14.90;1.00;;;;;;5076357;28;20485;-76
2021/07/12 02:21:09;;;;;;;4.78;4.35;;;14.90;1.00;;;;;;5074097;28;20024;-77
2021/07/12 02:23:37;;;;;;;5.25;3.70;;;14.90;1.00;;;;;;5085941;28;20023;-75
2021/07/12 02:26:04;;;;;;;3.97;3.25;;;14.90;1.00;;;;;;5095242;28;20064;-76
2021/07/12 02:28:31;;;;;;;4.30;3.90;;;14.90;1.00;;;;;;5078593;28;20100;-76
2021/07/12 02:30:57;;;;;;;3.50;3.15;;;14.90;1.00;;;;;;5059934;28;20390;-77
2021/07/12 02:33:24;;;;;;;4.80;4.30;;;14.90;1.00;;;;;;5076168;28;20020;-77
2021/07/12 02:35:51;;;;;;;7.75;4.40;;;14.80;1.00;;;;;;5057478;28;20030;-76
2021/07/12 02:38:17;;;;;;;5.75;4.50;;;14.80;1.00;;;;;;5074557;28;20024;-76
2021/07/12 02:40:45;;;;;;;6.47;4.05;;;14.80;1.00;;;;;;5074206;28;20027;-77
2021/07/12 02:43:12;;;;;;;5.72;4.28;;;14.80;1.00;;;;;;5074268;28;20036;-76
2021/07/12 02:45:39;;;;;;;4.10;3.47;;;14.80;1.00;;;;;;5073337;28;20060;-78
2021/07/12 02:48:05;;;;;;;7.32;3.72;;;14.80;1.00;;;;;;5073503;28;20055;-77
2021/07/12 02:50:31;;;;;;;6.88;4.32;;;14.80;1.00;;;;;;5073773;28;20074;-76
2021/07/12 02:53:20;;;;;;;6.68;4.88;;;14.80;1.00;;;;;;5072052;28;20017;-76
2021/07/12 02:55:46;;;;;;;6.10;3.78;;;14.80;1.00;;;;;;5073076;28;20496;-76
2021/07/12 02:58:11;;;;;;;4.70;4.25;;;14.80;1.00;;;;;;5073487;28;20036;-76
2021/07/12 03:00:37;;;;;;;9.05;4.05;;;14.80;1.00;;;;;;5055323;28;20489;-77
2021/07/12 03:03:03;;;;;;;7.57;4.10;;;14.70;1.00;;;;;;5073046;28;20504;-77
2021/07/12 03:05:29;;;;;;;7.90;4.60;;;14.80;1.00;;;;;;5073077;28;20024;-75
2021/07/12 03:08:11;;;;;;;12.05;4.95;;;14.80;1.00;;;;;;5073114;28;20031;-76
2021/07/12 03:10:44;;;;;;;7.13;4.18;;;14.80;1.00;;;;;;5055171;28;20023;-76
2021/07/12 03:13:16;;;;;;;5.07;3.90;;;14.80;1.00;;;;;;5073081;28;20451;-76
2021/07/12 03:15:46;;;;;;;5.25;3.88;;;14.80;1.00;;;;;;5055049;28;20035;-76
2021/07/12 03:18:38;;;;;;;7.80;4.38;;;14.70;1.00;;;;;;5072109;28;20437;-76
2021/07/12 03:21:05;;;;;;;8.45;5.45;;;14.70;1.00;;;;;;5054702;28;20037;-76
2021/07/12 03:23:37;;;;;;;5.15;4.25;;;14.70;1.00;;;;;;5072729;28;20517;-76
2021/07/12 03:26:04;;;;;;;4.88;4.15;;;14.70;1.00;;;;;;5072741;28;20399;-77
2021/07/12 03:28:31;;;;;;;6.18;4.32;;;14.70;1.00;;;;;;5072820;28;20024;-76
2021/07/12 03:30:57;;;;;;;7.85;5.38;;;14.60;1.00;;;;;;5072709;28;20386;-76
2021/07/12 03:33:26;;;;;;;7.20;4.20;;;14.80;1.00;;;;;;5071232;28;20473;-77
2021/07/12 03:35:53;;;;;;;7.10;4.22;;;14.80;1.00;;;;;;5054544;28;20064;-75
2021/07/12 03:38:21;;;;;;;6.28;3.55;;;14.80;1.00;;;;;;5071234;28;20055;-76
2021/07/12 03:40:48;;;;;;;5.35;4.03;;;14.80;1.00;;;;;;5071397;28;20046;-76
2021/07/12 03:43:16;;;;;;;5.40;4.10;;;14.80;1.00;;;;;;5055284;28;20077;-75
2021/07/12 03:45:50;;;;;;;4.53;4.13;;;14.90;1.00;;;;;;5072907;28;20104;-76
2021/07/12 03:48:16;;;;;;;4.65;4.20;;;14.80;1.00;;;;;;5055104;28;20505;-74
2021/07/12 03:50:41;;;;;;;5.68;4.07;;;14.80;1.00;;;;;;5072361;28;20033;-76
2021/07/12 03:53:08;;;;;;;10.43;4.93;;;14.80;1.00;;;;;;5071057;28;20482;-76
2021/07/12 03:55:34;;;;;;;7.57;5.70;;;14.90;1.00;;;;;;5072047;28;20047;-76
2021/07/12 03:58:00;;;;;;;5.93;4.13;;;14.90;1.00;;;;;;5072705;28;20020;-76
2021/07/12 04:00:30;;;;;;;10.57;9.48;;;14.90;1.00;;;;;;5070733;28;20040;-77
2021/07/12 04:02:56;;;;;;;8.90;4.50;;;14.90;1.00;;;;;;5072163;28;20024;-77
2021/07/12 04:05:27;;;;;;;9.60;4.60;;;15.00;1.00;;;;;;5053914;28;20029;-77
2021/07/12 04:07:53;;;;;;;4.72;3.97;;;15.00;1.00;;;;;;5072069;28;20024;-76
2021/07/12 04:10:19;;;;;;;6.57;3.78;;;15.10;1.00;;;;;;5072847;28;20025;-78
2021/07/12 04:12:46;;;;;;;8.40;4.50;;;15.10;1.00;;;;;;5072601;28;20027;-77
2021/07/12 04:15:14;;;;;;;6.35;4.13;;;15.20;1.00;;;;;;5072200;28;20028;-76
2021/07/12 04:17:41;;;;;;;10.20;4.05;;;15.20;1.00;;;;;;5070617;28;20398;-76
2021/07/12 04:20:08;;;;;;;8.30;4.20;;;15.20;1.00;;;;;;5070737;28;20059;-75
2021/07/12 04:22:33;;;;;;;5.80;4.03;;;15.40;1.00;;;;;;5072037;28;20402;-76
2021/07/12 04:24:59;;;;;;;5.47;3.50;;;15.80;1.00;;;;;;5071984;28;20030;-76
2021/07/12 04:27:25;;;;;;;10.30;4.30;;;16.00;1.00;;;;;;5072384;28;20504;-77
2021/07/12 04:29:50;;;;;;;4.50;3.70;;;16.10;1.00;;;;;;5072030;28;20028;-77
2021/07/12 04:32:16;;;;;;;7.25;3.95;;;16.30;1.00;;;;;;5072521;28;20032;-76
2021/07/12 04:34:42;;;;;;;5.30;4.13;;;16.40;1.00;;;;;;5072096;28;20104;-76
2021/07/12 04:37:07;;;;;;;5.95;4.07;;;16.40;1.00;;;;;;5070513;28;20036;-77
2021/07/12 04:39:33;;;;;;;4.88;3.60;;;16.40;1.00;;;;;;5072308;28;20035;-77
2021/07/12 04:41:59;;;;;;;11.07;4.50;;;16.30;1.00;;;;;;5053810;28;20073;-77
2021/07/12 04:44:25;;;;;;;5.32;4.35;;;16.40;1.00;;;;;;5071665;28;20405;-76
2021/07/12 04:46:50;;;;;;;6.55;4.25;;;16.40;1.00;;;;;;5071460;28;20031;-77
2021/07/12 04:49:17;;;;;;;7.35;4.00;;;16.20;1.00;;;;;;5071609;28;20539;-78
2021/07/12 04:51:44;;;;;;;6.72;3.88;;;16.10;1.00;;;;;;5092139;28;20058;-75
2021/07/12 04:54:10;;;;;;;11.18;3.75;;;16.30;1.00;;;;;;5079230;28;20035;-76
2021/07/12 04:56:36;;;;;;;5.03;3.75;;;16.50;1.00;;;;;;5072633;28;20020;-77
2021/07/12 04:59:06;;;;;;;5.18;3.83;;;17.00;1.00;;;;;;5072013;28;20028;-77
2021/07/12 05:01:33;;;;;;;5.93;3.72;;;17.60;1.00;;;;;;5071775;28;20013;-76
2021/07/12 05:04:02;;;;;;;4.05;3.10;;;17.90;1.00;;;;;;5071470;28;20056;-77
2021/07/12 05:06:29;;;;;;;7.68;3.03;;;18.20;99.90;;;;;;5070011;28;20027;-76
2021/07/12 05:08:55;;;;;;;16.35;3.97;;;18.80;99.90;;;;;;5070230;28;20017;-76
2021/07/12 05:11:21;;;;;;;6.57;2.85;;;19.40;99.90;;;;;;5071456;28;20028;-76
2021/07/12 05:13:47;;;;;;;4.35;2.58;;;20.10;99.90;;;;;;5071935;28;20032;-76
2021/07/12 05:16:13;;;;;;;6.30;2.63;;;20.40;99.90;;;;;;5071629;28;20029;-77
2021/07/12 05:18:39;;;;;;;6.55;2.40;;;21.20;99.90;;;;;;5071348;28;20486;-77
2021/07/12 05:21:05;;;;;;;6.18;2.17;;;22.20;99.90;;;;;;5071567;28;20032;-77
2021/07/12 05:23:31;;;;;;;9.75;2.60;;;22.40;99.90;;;;;;5071436;28;20370;-78
2021/07/12 05:25:57;;;;;;;3.85;2.55;;;22.30;99.90;;;;;;5071056;28;20104;-76
2021/07/12 05:28:23;;;;;;;6.57;2.83;;;22.70;99.90;;;;;;5071383;28;20013;-76
2021/07/12 05:30:48;;;;;;;5.28;2.53;;;23.60;99.90;;;;;;5071179;28;20058;-76
2021/07/12 05:33:14;;;;;;;3.95;2.50;;;24.00;99.90;;;;;;5070931;28;20474;-76
2021/07/12 05:35:40;;;;;;;5.20;2.10;;;24.30;99.90;;;;;;5069758;28;20119;-76
2021/07/12 05:38:07;;;;;;;4.18;3.05;;;23.10;99.90;;;;;;5070929;28;20027;-76
2021/07/12 05:40:33;;;;;;;4.75;2.17;;;22.30;99.90;;;;;;5069800;28;20020;-75
2021/07/12 05:42:59;;;;;;;3.10;2.53;;;22.00;99.90;;;;;;5074386;28;20074;-77
2021/07/12 05:45:24;;;;;;;10.18;3.08;;;23.00;99.90;;;;;;5074620;28;20072;-75
2021/07/12 05:47:50;;;;;;;8.57;2.65;;;23.90;99.90;;;;;;5076253;28;20036;-78
2021/07/12 05:50:16;;;;;;;4.97;2.25;;;23.20;99.90;;;;;;5056643;28;20482;-76
2021/07/12 05:52:41;;;;;;;7.63;2.67;;;24.10;99.90;;;;;;5074699;28;20027;-76
2021/07/12 05:55:08;;;;;;;3.75;3.03;;;23.40;99.90;;;;;;5074335;28;20025;-76
2021/07/12 05:57:34;;;;;;;3.70;2.70;;;23.00;99.90;;;;;;5073251;28;20111;-75
2021/07/12 05:59:59;;;;;;;3.75;3.22;;;23.60;99.90;;;;;;5074777;28;20095;-76
2021/07/12 06:02:25;;;;;;;4.07;3.10;;;24.70;99.90;;;;;;5074432;28;20043;-78
2021/07/12 06:04:50;;;;;;;5.13;4.05;;;24.10;99.90;;;;;;5074121;28;20103;-76
2021/07/12 06:07:16;;;;;;;6.82;3.10;;;23.20;99.90;;;;;;5074136;28;20021;-76
2021/07/12 06:09:42;;;;;;;5.93;3.15;;;22.90;99.90;;;;;;5074204;28;20029;-75
2021/07/12 06:12:07;;;;;;;7.72;3.45;;;23.00;99.90;;;;;;5074321;28;20385;-76
2021/07/12 06:14:33;;;;;;;12.00;3.85;;;22.70;99.90;;;;;;5074413;28;20103;-75
2021/07/12 06:16:58;;;;;;;6.32;2.30;;;22.70;99.90;;;;;;5074023;28;20033;-76
2021/07/12 06:19:24;;;;;;;6.25;2.63;;;23.10;99.90;;;;;;5074181;28;20025;-76
2021/07/12 06:21:50;;;;;;;5.97;2.53;;;23.40;99.90;;;;;;5074120;28;20444;-76
2021/07/12 06:24:16;;;;;;;6.68;2.20;;;23.30;99.90;;;;;;5072654;28;20033;-76
2021/07/12 06:26:41;;;;;;;2.10;1.45;;;23.40;99.90;;;;;;5074432;28;20476;-78
2021/07/12 06:29:07;;;;;;;3.00;1.70;;;23.20;99.90;;;;;;5097659;28;20044;-76
2021/07/12 06:31:33;;;;;;;4.00;1.90;;;22.80;99.90;;;;;;5072864;28;20043;-76
2021/07/12 06:33:58;;;;;;;4.30;2.08;;;22.60;99.90;;;;;;5073811;28;20032;-76
2021/07/12 06:36:24;;;;;;;3.63;1.55;;;22.20;99.90;;;;;;5056097;28;20541;-77
2021/07/12 06:38:49;;;;;;;4.10;1.42;;;22.10;99.90;;;;;;5073586;28;20103;-77
2021/07/12 06:41:16;;;;;;;1.20;1.10;;;21.80;99.90;;;;;;5073719;28;20055;-75
2021/07/12 06:43:41;;;;;;;2.42;1.40;;;21.80;99.90;;;;;;5073794;28;20060;-76
2021/07/12 06:46:07;;;;;;;4.38;1.90;;;21.70;99.90;;;;;;5071978;28;20102;-76
2021/07/12 06:48:32;;;;;;;5.07;1.58;;;21.60;99.90;;;;;;5073434;28;20025;-76
2021/07/12 06:50:58;;;;;;;3.65;1.40;;;21.60;99.90;;;;;;5073560;28;20020;-76
2021/07/12 06:53:23;;;;;;;5.88;1.20;;;21.70;99.90;;;;;;5071922;28;20078;-76
2021/07/12 06:55:49;;;;;;;3.35;1.45;;;21.90;99.90;;;;;;5072124;28;20078;-77
2021/07/12 06:58:15;;;;;;;6.57;1.80;;;22.50;99.90;;;;;;5071939;28;20074;-76
2021/07/12 07:00:40;;;;;;;4.30;1.80;;;22.40;99.90;;;;;;5073127;28;20078;-76
2021/07/12 07:03:06;;;;;;;10.23;1.80;;;22.00;99.90;;;;;;5073193;28;20517;-77
2021/07/12 07:05:32;;;;;;;10.00;1.77;;;22.30;99.90;;;;;;5072846;28;20389;-76
2021/07/12 07:07:58;;;;;;;3.25;1.48;;;22.30;99.90;;;;;;5073065;28;20025;-75
2021/07/12 07:10:24;;;;;;;3.67;1.80;;;22.10;99.90;;;;;;5071706;28;20025;-76
2021/07/12 07:12:49;;;;;;;3.33;1.77;;;22.30;99.90;;;;;;5055232;28;20025;-76
2021/07/12 07:15:15;;;;;;;3.13;1.67;;;22.70;99.90;;;;;;5073075;28;20051;-76
2021/07/12 07:17:40;;;;;;;3.08;1.80;;;22.70;99.90;;;;;;5071811;28;20077;-77
2021/07/12 07:20:07;;;;;;;2.17;1.42;;;22.80;99.90;;;;;;5072868;28;20028;-77
2021/07/12 07:22:32;;;;;;;2.25;1.50;;;22.70;99.90;;;;;;5073180;28;20031;-76
2021/07/12 07:24:58;;;;;;;6.22;1.58;;;22.40;99.90;;;;;;5072555;28;20119;-76
2021/07/12 07:27:24;;;;;;;16.25;2.50;;;22.30;99.90;;;;;;5072958;28;20094;-76
2021/07/12 07:29:50;;;;;;;3.90;1.42;;;22.20;99.90;;;;;;5072788;28;20477;-77
2021/07/12 07:32:15;;;;;;;1.73;1.30;;;22.30;99.90;;;;;;5072661;28;20545;-75
2021/07/12 07:34:42;;;;;;;5.05;1.75;;;22.60;99.90;;;;;;5071257;28;20063;-75
2021/07/12 07:37:09;;;;;;;1.65;1.55;;;22.60;99.90;;;;;;5072503;28;20134;-76
2021/07/12 07:39:34;;;;;;;3.38;1.60;;;22.50;99.90;;;;;;5072601;28;20024;-76
2021/07/12 07:42:00;;;;;;;3.17;1.85;;;22.50;99.90;;;;;;5072599;28;20104;-77
2021/07/12 07:44:26;;;;;;;5.93;1.98;;;22.40;99.90;;;;;;5072501;28;20024;-76
2021/07/12 07:46:51;;;;;;;4.38;1.88;;;22.60;99.90;;;;;;5054085;28;20028;-76
2021/07/12 07:49:17;;;;;;;2.85;1.90;;;23.00;99.90;;;;;;5071201;28;20541;-76
2021/07/12 07:51:44;;;;;;;1.85;1.45;;;23.30;99.90;;;;;;5072212;28;20386;-76
2021/07/12 07:54:10;;;;;;;1.70;1.45;;;23.30;99.90;;;;;;5072180;28;20044;-76
2021/07/12 07:56:37;;;;;;;3.35;2.03;;;23.40;99.90;;;;;;5071963;28;20036;-77
2021/07/12 07:59:04;;;;;;;4.50;1.40;;;23.30;99.90;;;;;;5070981;28;20048;-77
2021/07/12 08:01:30;;;;;;;3.55;2.03;;;23.30;99.90;;;;;;5072174;28;20446;-76
2021/07/12 08:03:55;;;;;;;9.80;2.03;;;23.10;99.90;;;;;;5072276;28;20151;-76
2021/07/12 08:06:21;;;;;;;2.53;1.17;;;23.50;99.90;;;;;;5071504;28;20504;-76
2021/07/12 08:08:47;;;;;;;1.33;1.23;;;23.40;99.90;;;;;;5070692;28;20107;-76
2021/07/12 08:11:12;;;;;;;1.73;1.23;;;23.20;99.90;;;;;;5071051;28;20390;-76
2021/07/12 08:13:38;;;;;;;2.50;1.10;;;23.30;99.90;;;;;;5071840;28;20024;-76
2021/07/12 08:16:04;;;;;;;2.05;1.20;;;23.10;99.90;;;;;;5071807;28;20110;-75
2021/07/12 08:18:30;;;;;;;0.93;0.82;;;23.40;99.90;;;;;;5070811;28;20024;-76
2021/07/12 08:20:56;;;;;;;2.25;1.00;;;23.70;99.90;;;;;;5072011;28;20037;-76
2021/07/12 08:23:23;;;;;;;8.68;1.60;;;23.70;99.90;;;;;;5071786;28;20029;-76
2021/07/12 08:25:49;;;;;;;3.92;1.00;;;23.80;99.90;;;;;;5053695;28;20025;-76
2021/07/12 08:28:15;;;;;;;1.05;0.82;;;24.00;99.90;;;;;;5071977;28;20024;-76
2021/07/12 08:30:41;;;;;;;2.55;1.00;;;24.20;99.90;;;;;;5053808;28;20026;-76
2021/07/12 08:33:07;;;;;;;1.60;0.98;;;24.30;99.90;;;;;;5072217;28;20024;-79
2021/07/12 08:35:33;;;;;;;1.80;0.95;;;24.50;99.90;;;;;;5071548;28;20100;-76
2021/07/12 08:37:58;;;;;;;1.95;1.17;;;24.50;99.90;;;;;;5071575;28;20069;-76
2021/07/12 08:40:24;;;;;;;1.23;0.90;;;24.70;99.90;;;;;;5070390;28;20032;-77
2021/07/12 08:42:52;;;;;;;2.17;1.05;;;24.70;99.90;;;;;;5071748;28;20071;-77
2021/07/12 08:45:18;;;;;;;2.47;1.10;;;24.80;99.90;;;;;;5071303;28;20024;-76
2021/07/12 08:47:44;;;;;;;1.80;1.10;;;24.80;99.90;;;;;;5071702;28;20024;-77
2021/07/12 08:50:10;;;;;;;0.75;0.73;;;24.80;99.90;;;;;;5071843;28;20040;-77
2021/07/12 08:52:35;;;;;;;1.83;1.25;;;25.00;99.90;;;;;;5053246;28;20066;-77
2021/07/12 08:55:03;;;;;;;4.35;1.20;;;24.80;99.90;;;;;;5071072;28;20027;-78
2021/07/12 08:57:29;;;;;;;3.03;1.13;;;24.60;99.90;;;;;;5053202;28;20031;-77
2021/07/12 08:59:55;;;;;;;1.10;0.98;;;24.60;99.90;;;;;;5071665;28;20028;-77
2021/07/12 09:02:22;;;;;;;0.90;0.70;;;24.70;99.90;;;;;;5071210;28;20021;-76
2021/07/12 09:04:50;;;;;;;1.15;1.05;;;24.50;99.90;;;;;;5071334;28;20454;-76
2021/07/12 09:07:29;;;;;;;2.28;1.05;;;24.70;99.90;;;;;;5071399;28;20062;-76
2021/07/12 09:10:14;;;;;;;3.53;0.95;;;25.20;99.90;;;;;;5070566;28;20054;-76
2021/07/12 09:12:45;;;;;;;3.38;1.15;;;25.40;99.90;;;;;;5071302;28;20335;-77
2021/07/12 09:15:22;;;;;;;1.33;0.90;;;25.40;99.90;;;;;;5070169;28;20025;-77
2021/07/12 09:17:54;;;;;;;1.15;0.88;;;25.20;99.90;;;;;;5074382;28;20055;-75
2021/07/12 09:20:26;;;;;;;0.93;0.80;;;25.40;99.90;;;;;;5075253;28;20021;-77
2021/07/12 09:22:52;;;;;;;2.10;0.90;;;25.30;99.90;;;;;;5057162;28;20035;-76
2021/07/12 09:25:17;;;;;;;4.97;1.05;;;25.40;99.90;;;;;;5074747;28;20498;-77
2021/07/12 09:27:43;;;;;;;2.65;1.23;;;25.50;99.90;;;;;;5074889;28;20287;-77
2021/07/12 09:30:14;;;;;;;3.67;1.15;;;25.40;99.90;;;;;;5074828;28;20099;-76
2021/07/12 09:32:42;;;;;;;1.75;0.95;;;25.30;99.90;;;;;;5074742;28;20020;-76
2021/07/12 09:35:11;;;;;;;5.88;1.15;;;25.60;99.90;;;;;;5057043;28;20115;-78
2021/07/12 09:37:39;;;;;;;1.45;0.85;;;25.60;99.90;;;;;;5074572;28;20063;-75
2021/07/12 09:40:07;;;;;;;2.55;0.82;;;25.70;99.90;;;;;;5073483;28;20027;-77
2021/07/12 09:42:33;;;;;;;4.03;1.25;;;25.70;99.90;;;;;;5073191;28;20031;-76
2021/07/12 09:45:03;;;;;;;1.60;0.90;;;25.80;99.90;;;;;;5073192;28;20028;-77
2021/07/12 09:47:30;;;;;;;2.55;0.80;;;25.90;99.90;;;;;;5074504;28;20036;-76
2021/07/12 09:50:02;;;;;;;2.75;1.02;;;26.00;99.90;;;;;;5074701;28;20071;-76
2021/07/12 09:52:43;;;;;;;2.35;0.90;;;26.10;99.90;;;;;;5074277;28;20024;-76
2021/07/12 09:55:32;;;;;;;1.38;1.00;;;26.00;99.90;;;;;;5073170;28;20029;-76
2021/07/12 09:58:12;;;;;;;1.08;0.98;;;26.00;99.40;;;;;;5075620;28;20028;-76
2021/07/12 10:00:47;;;;;;;1.10;1.00;;;26.10;99.90;;;;;;5072881;28;20034;-76
2021/07/12 10:03:15;;;;;;;1.10;0.93;;;26.30;99.30;;;;;;5074358;28;20047;-76
2021/07/12 10:05:41;;;;;;;1.42;1.00;;;26.10;99.30;;;;;;5072670;28;20512;-77
2021/07/12 10:08:07;;;;;;;1.20;1.10;;;26.40;99.10;;;;;;5074220;28;20025;-76
2021/07/12 10:10:33;;;;;;;2.10;1.10;;;26.30;99.60;;;;;;5073031;28;20059;-76
2021/07/12 10:12:58;;;;;;;3.83;1.13;;;26.80;98.50;;;;;;5074030;28;20021;-77
2021/07/12 10:15:24;;;;;;;2.10;0.80;;;26.70;98.50;;;;;;5072684;28;20075;-77
2021/07/12 10:17:49;;;;;;;2.65;0.90;;;27.00;98.20;;;;;;5056399;28;20032;-76
2021/07/12 10:20:19;;;;;;;1.02;0.75;;;27.20;97.70;;;;;;5074303;28;20083;-76
2021/07/12 10:22:45;;;;;;;0.82;0.82;;;27.00;96.90;;;;;;5072966;28;20024;-77
2021/07/12 10:25:16;;;;;;;0.70;0.68;;;26.80;97.40;;;;;;5074302;28;20028;-75
2021/07/12 10:27:49;;;;;;;3.97;0.95;;;27.20;96.40;;;;;;5073654;28;20091;-76
2021/07/12 10:30:33;;;;;;;1.52;0.98;;;27.30;96.10;;;;;;5055861;28;20016;-75
2021/07/12 10:33:04;;;;;;;1.35;0.98;;;26.90;96.90;;;;;;5074255;28;20036;-76
2021/07/12 10:35:40;;;;;;;0.80;0.70;;;26.90;96.60;;;;;;5073822;28;20048;-75
2021/07/12 10:38:06;;;;;;;3.13;0.88;;;27.10;96.10;;;;;;5073929;28;20386;-76
2021/07/12 10:40:54;;;;;;;1.10;0.82;;;27.60;95.90;;;;;;5073723;28;20556;-76
2021/07/12 10:43:41;;;;;;;1.00;0.95;;;27.30;96.10;;;;;;5073953;28;20111;-76
2021/07/12 10:46:07;;;;;;;2.03;1.77;;;27.30;95.80;;;;;;5073494;28;20513;-77
2021/07/12 10:48:35;;;;;;;6.78;1.27;;;27.20;96.10;;;;;;5072571;28;20025;-76
2021/07/12 10:51:18;;;;;;;2.17;0.90;;;27.30;95.50;;;;;;5073482;28;20025;-76
2021/07/12 10:53:57;;;;;;;6.38;1.25;;;27.30;94.90;;;;;;5073994;28;20025;-76
2021/07/12 10:56:23;;;;;;;1.38;0.70;;;27.10;94.90;;;;;;5073443;28;20397;-75
2021/07/12 10:58:49;;;;;;;1.55;0.80;;;27.10;95.50;;;;;;5073381;28;20032;-76
2021/07/12 11:01:17;;;;;;;1.40;0.98;;;27.90;94.20;;;;;;5073549;28;20389;-76
2021/07/12 11:03:49;;;;;;;1.13;0.93;;;27.90;94.30;;;;;;5073586;28;20021;-75
2021/07/12 11:06:22;;;;;;;1.35;0.77;;;28.10;94.10;;;;;;5071641;28;20078;-77
2021/07/12 11:08:55;;;;;;;3.08;1.00;;;27.50;93.80;;;;;;5073245;28;20032;-76
2021/07/12 11:11:20;;;;;;;1.13;0.80;;;27.40;94.50;;;;;;5071812;28;20378;-78
2021/07/12 11:14:00;;;;;;;2.50;1.00;;;27.50;94.00;;;;;;5072940;28;20023;-77
2021/07/12 11:16:38;;;;;;;1.92;1.63;;;27.60;93.50;;;;;;5073016;28;20025;-76
2021/07/12 11:19:19;;;;;;;2.33;1.02;;;27.40;93.80;;;;;;5072901;28;20043;-75
2021/07/12 11:21:45;;;;;;;1.17;1.00;;;27.30;93.60;;;;;;5073103;28;20027;-75
2021/07/12 11:24:11;;;;;;;2.15;1.10;;;27.30;94.10;;;;;;5071133;28;20035;-76
2021/07/12 11:27:03;;;;;;;0.85;0.85;;;28.20;93.30;;;;;;5054604;28;20386;-76
2021/07/12 11:29:36;;;;;;;6.65;1.92;;;28.50;92.30;;;;;;5072747;28;20031;-76
2021/07/12 11:32:07;;;;;;;0.90;0.90;;;28.30;92.30;;;;;;5072714;28;20116;-76
2021/07/12 11:34:42;;;;;;;3.72;1.00;;;28.80;92.00;;;;;;5072329;28;20024;-76
2021/07/12 11:37:10;;;;;;;5.68;1.20;;;28.90;91.90;;;;;;5071293;28;20024;-76
2021/07/12 11:39:43;;;;;;;2.67;0.98;;;28.20;93.20;;;;;;5070544;28;20033;-75
2021/07/12 11:42:16;;;;;;;2.42;0.90;;;28.60;92.00;;;;;;5072539;28;20021;-76
2021/07/12 11:44:46;;;;;;;4.53;0.93;;;28.50;91.40;;;;;;5072852;28;20020;-76
2021/07/12 11:47:17;;;;;;;4.13;1.10;;;28.30;91.60;;;;;;5054281;28;20043;-77
2021/07/12 11:49:58;;;;;;;2.53;1.23;;;28.90;91.50;;;;;;5072888;28;20055;-75
2021/07/12 11:52:25;;;;;;;1.58;0.70;;;28.40;91.70;;;;;;5072371;28;20025;-76
2021/07/12 11:54:59;;;;;;;3.70;1.10;;;28.60;91.20;;;;;;5072236;28;20029;-76
2021/07/12 11:57:24;;;;;;;3.40;1.13;;;28.30;91.80;;;;;;5072108;28;20034;-76
2021/07/12 11:59:50;;;;;;;3.38;0.90;;;28.00;91.30;;;;;;5072187;28;20457;-76
2021/07/12 12:02:17;;;;;;;2.38;1.08;;;28.20;91.00;;;;;;5072220;28;20031;-76
2021/07/12 12:04:48;;;;;;;5.07;0.93;;;28.70;90.70;;;;;;5070528;28;20024;-76
2021/07/12 12:07:32;;;;;;;1.25;1.00;;;28.90;90.30;;;;;;5071971;28;20066;-77
2021/07/12 12:09:59;;;;;;;1.00;0.90;;;29.30;90.00;;;;;;5072385;28;20025;-76
2021/07/12 12:12:31;;;;;;;1.08;0.90;;;29.40;88.00;;;;;;5071916;28;20020;-76
2021/07/12 12:14:58;;;;;;;4.35;1.35;;;28.80;89.60;;;;;;5070655;28;20100;-76
2021/07/12 12:17:24;;;;;;;1.38;1.02;;;28.80;90.50;;;;;;5071833;28;20016;-76
2021/07/12 12:20:10;;;;;;;0.98;0.82;;;29.60;86.90;;;;;;5071840;28;20028;-76
2021/07/12 12:22:36;;;;;;;2.78;0.90;;;29.40;86.60;;;;;;5072233;28;20036;-76
2021/07/12 12:25:05;;;;;;;0.75;0.75;;;29.20;87.70;;;;;;5071908;28;20030;-81
2021/07/12 12:27:31;;;;;;;1.00;0.90;;;29.30;86.20;;;;;;5071464;28;20032;-75
2021/07/12 12:29:57;;;;;;;2.50;0.80;;;29.50;87.00;;;;;;5071888;28;20140;-76
2021/07/12 12:32:29;;;;;;;1.05;0.95;;;28.90;86.40;;;;;;5071661;28;20029;-76
2021/07/12 12:34:55;;;;;;;0.73;0.73;;;28.60;87.20;;;;;;5053667;28;20682;-75
2021/07/12 12:37:20;;;;;;;3.60;0.98;;;28.50;87.40;;;;;;5071546;28;20033;-77
2021/07/12 12:39:46;;;;;;;1.27;0.70;;;28.70;88.30;;;;;;5071657;28;20486;-76
2021/07/12 12:42:25;;;;;;;1.70;0.82;;;28.60;87.50;;;;;;5071569;28;20024;-78
2021/07/12 12:44:55;;;;;;;3.00;1.30;;;29.20;85.80;;;;;;5071725;28;20151;-76
2021/07/12 12:47:27;;;;;;;1.58;0.90;;;29.60;86.40;;;;;;5071489;28;20404;-74
2021/07/12 12:49:53;;;;;;;1.50;0.90;;;29.30;88.00;;;;;;5071831;28;20058;-76
2021/07/12 12:52:19;;;;;;;1.05;0.80;;;29.60;85.60;;;;;;5075901;28;20020;-76
2021/07/12 12:54:49;;;;;;;1.75;0.90;;;30.10;84.40;;;;;;5057819;28;20094;-77
2021/07/12 12:57:16;;;;;;;2.05;0.90;;;30.00;84.40;;;;;;5075667;28;20432;-77
2021/07/12 12:59:43;;;;;;;2.47;0.88;;;29.30;85.80;;;;;;5075557;28;20024;-77